Time;durP1;ratioP1;P1;durP2;ratioP2;P2;SDS_P1;SDS_P2;PMS_P1;PMS_P2;Temp;Humidity;BMP_temperature;BMP_pressure;BME280_temperature;BME280_humidity;BME280_pressure;Samples;Min_cycle;Max_cycle;Signal;HPM_P1;HPM_P2
2023/08/27 00:05:29;;;;;;;;;0.00;0.00;;;;;;;;2;248342306;248342306;-76
2023/08/27 00:11:10;;;;;;;;;0.00;0.00;;;;;;;;2;232551459;232551459;-76
2023/08/27 00:18:44;;;;;;;;;1.00;1.00;;;;;;;;110142;30;220243584;-75
2023/08/27 00:27:09;;;;;;;;;0.00;0.00;;;;;;;;2;259029292;259029292;-76
2023/08/27 00:34:16;;;;;;;;;1.00;1.00;;;;;;;;2;220002381;220002381;-75
2023/08/27 00:42:05;;;;;;;;;1.00;1.00;;;;;;;;145211;30;243398684;-76
2023/08/27 00:46:57;;;;;;;;;1.00;1.00;;;;;;;;2;230993869;230993869;-76
2023/08/27 00:52:20;;;;;;;;;1.00;1.00;;;;;;;;118603;30;193337388;-75
2023/08/27 00:59:23;;;;;;;;;0.00;0.00;;;;;;;;58099;30;203874076;-76
2023/08/27 01:07:26;;;;;;;;;0.00;0.00;;;;;;;;2;244532372;244532372;-76
2023/08/27 01:14:42;;;;;;;;;0.00;0.00;;;;;;;;2;211288038;211288038;-76
2023/08/27 01:22:49;;;;;;;;;0.00;0.00;;;;;;;;2;249655945;249655945;-75
2023/08/27 01:30:07;;;;;;;;;0.00;0.00;;;;;;;;2;209103078;209103078;-75
2023/08/27 01:38:06;;;;;;;;;0.00;0.00;;;;;;;;2;244362015;244362015;-76
2023/08/27 01:45:35;;;;;;;;;0.00;0.00;;;;;;;;2;217963017;217963017;-76
2023/08/27 01:54:06;;;;;;;;;0.50;0.50;;;;;;;;2;263408233;263408233;-76
2023/08/27 02:01:37;;;;;;;;;1.00;1.00;;;;;;;;2;219745452;219745452;-75
2023/08/27 02:10:07;;;;;;;;;1.00;1.00;;;;;;;;2;263886390;263886390;-76
2023/08/27 02:17:43;;;;;;;;;0.50;0.50;;;;;;;;2;224250758;224250758;-75
2023/08/27 02:26:19;;;;;;;;;2.00;2.00;;;;;;;;2;267142520;267142520;-76
2023/08/27 02:33:52;;;;;;;;;0.00;0.00;;;;;;;;2;223123630;223123630;-75
2023/08/27 02:42:26;;;;;;;;;0.00;0.00;;;;;;;;2;264300554;264300554;-75
2023/08/27 02:49:59;;;;;;;;;0.50;0.50;;;;;;;;2;221147195;221147195;-77
2023/08/27 02:58:35;;;;;;;;;0.00;0.00;;;;;;;;2;266240208;266240208;-76
2023/08/27 03:06:13;;;;;;;;;0.50;0.50;;;;;;;;2;222398122;222398122;-76
2023/08/27 03:14:52;;;;;;;;;0.00;0.00;;;;;;;;2;268454715;268454715;-75
2023/08/27 03:22:28;;;;;;;;;0.00;0.00;;;;;;;;2;223461907;223461907;-76
2023/08/27 03:31:01;;;;;;;;;0.00;0.00;;;;;;;;2;265125719;265125719;-75
2023/08/27 03:38:33;;;;;;;;;1.50;1.50;;;;;;;;2;221649018;221649018;-76
2023/08/27 03:47:07;;;;;;;;;0.50;0.50;;;;;;;;2;265849253;265849253;-76
2023/08/27 03:54:43;;;;;;;;;0.50;0.50;;;;;;;;2;224657075;224657075;-76
2023/08/27 04:03:19;;;;;;;;;0.00;0.00;;;;;;;;2;266547948;266547948;-75
2023/08/27 04:10:52;;;;;;;;;0.50;0.50;;;;;;;;2;221299204;221299204;-76
2023/08/27 04:19:26;;;;;;;;;0.50;0.50;;;;;;;;2;266381134;266381134;-75
2023/08/27 04:27:00;;;;;;;;;0.00;0.00;;;;;;;;2;222463273;222463273;-76
2023/08/27 04:35:36;;;;;;;;;0.00;0.00;;;;;;;;2;265856799;265856799;-75
2023/08/27 04:43:14;;;;;;;;;0.00;0.00;;;;;;;;2;224601205;224601205;-76
2023/08/27 04:51:50;;;;;;;;;0.00;0.00;;;;;;;;2;265718591;265718591;-76
2023/08/27 04:59:30;;;;;;;;;0.50;0.50;;;;;;;;2;225165958;225165958;-76
2023/08/27 05:08:09;;;;;;;;;0.50;0.50;;;;;;;;2;268298695;268298695;-76
2023/08/27 05:15:47;;;;;;;;;0.00;0.00;;;;;;;;2;223770577;223770577;-76
2023/08/27 05:24:25;;;;;;;;;0.00;0.00;;;;;;;;2;267863005;267863005;-76
2023/08/27 05:32:00;;;;;;;;;0.00;0.00;;;;;;;;2;222792398;222792398;-76
2023/08/27 05:40:40;;;;;;;;;0.00;0.00;;;;;;;;2;268678057;268678057;-77
2023/08/27 05:48:15;;;;;;;;;0.00;0.00;;;;;;;;2;223668510;223668510;-77
2023/08/27 05:56:50;;;;;;;;;0.00;0.00;;;;;;;;2;265574418;265574418;-78
2023/08/27 06:04:24;;;;;;;;;0.00;0.00;;;;;;;;2;223917669;223917669;-77
2023/08/27 06:12:59;;;;;;;;;0.00;0.00;;;;;;;;2;267878916;267878916;-77
2023/08/27 06:20:36;;;;;;;;;0.50;0.50;;;;;;;;2;223793558;223793558;-77
2023/08/27 06:29:09;;;;;;;;;0.00;0.00;;;;;;;;2;265425992;265425992;-77
2023/08/27 06:36:43;;;;;;;;;1.00;1.00;;;;;;;;2;222182413;222182413;-78
2023/08/27 06:45:18;;;;;;;;;0.00;0.00;;;;;;;;2;264321072;264321072;-77
2023/08/27 06:52:51;;;;;;;;;0.50;0.50;;;;;;;;2;222287830;222287830;-77
2023/08/27 07:01:24;;;;;;;;;1.00;1.00;;;;;;;;2;262778635;262778635;-77
2023/08/27 07:12:07;;;;;;;;;0.00;0.00;;;;;;;;2;221049533;221049533;-78
2023/08/27 07:20:36;;;;;;;;;0.00;0.00;;;;;;;;2;262036384;262036384;-79
2023/08/27 07:28:12;;;;;;;;;0.50;0.50;;;;;;;;2;223792282;223792282;-78
2023/08/27 07:36:49;;;;;;;;;0.50;0.50;;;;;;;;2;266996171;266996171;-77
2023/08/27 07:44:26;;;;;;;;;0.00;0.00;;;;;;;;2;222535012;222535012;-77
2023/08/27 07:53:00;;;;;;;;;1.00;1.00;;;;;;;;2;262813043;262813043;-78
2023/08/27 08:00:35;;;;;;;;;0.00;0.00;;;;;;;;2;223968404;223968404;-77
2023/08/27 08:09:13;;;;;;;;;0.00;0.00;;;;;;;;2;265776486;265776486;-76
2023/08/27 08:16:52;;;;;;;;;0.00;0.00;;;;;;;;2;224319757;224319757;-77
2023/08/27 08:25:28;;;;;;;;;0.00;0.00;;;;;;;;2;266197334;266197334;-77
2023/08/27 08:33:05;;;;;;;;;0.50;0.50;;;;;;;;2;223905101;223905101;-77
2023/08/27 08:41:46;;;;;;;;;0.00;0.00;;;;;;;;2;268718744;268718744;-77
2023/08/27 08:49:22;;;;;;;;;0.00;0.00;;;;;;;;2;223430968;223430968;-77
2023/08/27 08:58:03;;;;;;;;;0.50;0.50;;;;;;;;2;269385860;269385860;-77
2023/08/27 09:05:39;;;;;;;;;0.00;0.00;;;;;;;;2;225067188;225067188;-77
2023/08/27 09:14:16;;;;;;;;;0.00;0.00;;;;;;;;2;267544970;267544970;-78
2023/08/27 09:21:52;;;;;;;;;0.50;0.50;;;;;;;;2;222987835;222987835;-76
2023/08/27 09:30:26;;;;;;;;;0.50;0.50;;;;;;;;2;266151288;266151288;-77
2023/08/27 09:37:59;;;;;;;;;1.50;1.50;;;;;;;;2;224266513;224266513;-76
2023/08/27 09:46:34;;;;;;;;;1.50;1.50;;;;;;;;2;265424347;265424347;-77
2023/08/27 09:54:17;;;;;;;;;6.00;6.00;;;;;;;;2;222010383;222010383;-77
2023/08/27 10:02:53;;;;;;;;;1.50;1.50;;;;;;;;2;263565343;263565343;-76
2023/08/27 10:10:26;;;;;;;;;0.50;0.50;;;;;;;;2;222846422;222846422;-76
2023/08/27 10:19:01;;;;;;;;;0.00;0.00;;;;;;;;2;266053943;266053943;-74
2023/08/27 10:26:35;;;;;;;;;0.00;0.00;;;;;;;;2;223244816;223244816;-76
2023/08/27 10:35:05;;;;;;;;;0.00;0.00;;;;;;;;2;262642133;262642133;-78
2023/08/27 10:42:39;;;;;;;;;0.50;0.50;;;;;;;;2;221201618;221201618;-77
2023/08/27 10:51:12;;;;;;;;;0.50;0.50;;;;;;;;2;265948418;265948418;-78
2023/08/27 10:58:45;;;;;;;;;0.00;0.00;;;;;;;;2;223665681;223665681;-75
2023/08/27 11:07:22;;;;;;;;;1.00;1.00;;;;;;;;2;264061185;264061185;-77
2023/08/27 11:15:09;;;;;;;;;0.00;0.00;;;;;;;;2;222359136;222359136;-79
2023/08/27 11:23:45;;;;;;;;;0.00;0.00;;;;;;;;2;263360795;263360795;-78
2023/08/27 11:31:16;;;;;;;;;0.50;0.50;;;;;;;;2;221398174;221398174;-79
2023/08/27 11:39:50;;;;;;;;;0.00;0.00;;;;;;;;2;264344112;264344112;-79
2023/08/27 11:47:25;;;;;;;;;0.00;0.00;;;;;;;;2;223174775;223174775;-79
2023/08/27 11:55:57;;;;;;;;;0.00;0.00;;;;;;;;2;262839664;262839664;-79
2023/08/27 12:03:28;;;;;;;;;0.00;0.00;;;;;;;;2;219962463;219962463;-79
2023/08/27 12:12:03;;;;;;;;;0.00;0.00;;;;;;;;2;264082397;264082397;-78
2023/08/27 12:19:33;;;;;;;;;1.00;1.00;;;;;;;;2;220211931;220211931;-78
2023/08/27 12:28:10;;;;;;;;;1.50;1.50;;;;;;;;2;266847910;266847910;-79
2023/08/27 12:35:50;;;;;;;;;1.00;1.00;;;;;;;;2;225856884;225856884;-79
2023/08/27 12:44:22;;;;;;;;;0.00;0.00;;;;;;;;2;263413450;263413450;-80
2023/08/27 12:51:56;;;;;;;;;0.00;0.00;;;;;;;;2;220816391;220816391;-79
2023/08/27 13:00:28;;;;;;;;;2.50;2.50;;;;;;;;2;264374410;264374410;-79
2023/08/27 13:08:05;;;;;;;;;1.00;1.00;;;;;;;;2;223579647;223579647;-79
2023/08/27 13:16:53;;;;;;;;;0.00;0.00;;;;;;;;2;272375517;272375517;-78
2023/08/27 13:24:42;;;;;;;;;0.00;0.00;;;;;;;;2;230503452;230503452;-79
2023/08/27 13:33:30;;;;;;;;;0.00;0.00;;;;;;;;2;271770418;271770418;-78
2023/08/27 13:41:15;;;;;;;;;0.00;0.00;;;;;;;;2;226962733;226962733;-78
2023/08/27 13:50:04;;;;;;;;;1.00;1.00;;;;;;;;2;273351914;273351914;-78
2023/08/27 13:57:52;;;;;;;;;0.50;0.50;;;;;;;;2;229394665;229394665;-77
2023/08/27 14:06:41;;;;;;;;;0.50;0.50;;;;;;;;2;271933087;271933087;-77
2023/08/27 14:14:29;;;;;;;;;0.50;0.50;;;;;;;;2;229383509;229383509;-77
2023/08/27 14:23:19;;;;;;;;;0.00;0.00;;;;;;;;2;273176960;273176960;-76
2023/08/27 14:31:07;;;;;;;;;0.00;0.00;;;;;;;;2;228409669;228409669;-79
2023/08/27 14:39:56;;;;;;;;;1.50;1.50;;;;;;;;2;272845386;272845386;-77
2023/08/27 14:47:43;;;;;;;;;0.00;0.00;;;;;;;;2;228233756;228233756;-78
2023/08/27 14:56:29;;;;;;;;;0.00;0.00;;;;;;;;2;272633274;272633274;-79
2023/08/27 15:04:17;;;;;;;;;0.00;0.00;;;;;;;;2;229620362;229620362;-78
2023/08/27 15:13:06;;;;;;;;;0.50;0.50;;;;;;;;2;273737114;273737114;-77
2023/08/27 15:20:54;;;;;;;;;0.00;0.00;;;;;;;;2;229558808;229558808;-77
2023/08/27 15:29:44;;;;;;;;;0.50;0.50;;;;;;;;2;273633261;273633261;-76
2023/08/27 15:37:31;;;;;;;;;0.00;0.00;;;;;;;;2;228721381;228721381;-79
2023/08/27 15:45:38;;;;;;;;;1.00;1.00;;;;;;;;360141;30;133650638;-78
2023/08/27 15:54:34;;;;;;;;;;;;;;;;;;2;275412370;275412370;-78
2023/08/27 16:02:32;;;;;;;;;0.00;0.00;;;;;;;;2;234071470;234071470;-77
2023/08/27 16:11:32;;;;;;;;;0.50;0.50;;;;;;;;2;279080901;279080901;-79
2023/08/27 16:19:29;;;;;;;;;0.00;0.00;;;;;;;;2;234068211;234068211;-78
2023/08/27 16:28:30;;;;;;;;;1.50;1.50;;;;;;;;2;279083305;279083305;-77
2023/08/27 16:36:28;;;;;;;;;0.00;0.00;;;;;;;;2;234072743;234072743;-79
2023/08/27 16:45:28;;;;;;;;;0.00;0.00;;;;;;;;2;279085672;279085672;-76
2023/08/27 16:53:25;;;;;;;;;3.00;0.00;;;;;;;;2;234073609;234073609;-77
2023/08/27 17:02:26;;;;;;;;;0.50;0.50;;;;;;;;2;279085380;279085380;-78
2023/08/27 17:10:23;;;;;;;;;0.50;0.50;;;;;;;;2;234071577;234071577;-80
2023/08/27 17:19:24;;;;;;;;;0.00;0.00;;;;;;;;2;279082282;279082282;-80
2023/08/27 17:27:22;;;;;;;;;0.00;0.00;;;;;;;;2;234071622;234071622;-78
2023/08/27 17:36:22;;;;;;;;;0.00;0.00;;;;;;;;2;279085781;279085781;-77
2023/08/27 17:44:19;;;;;;;;;0.00;0.00;;;;;;;;2;234072650;234072650;-77
2023/08/27 17:53:20;;;;;;;;;1.00;1.00;;;;;;;;2;279085985;279085985;-78
2023/08/27 18:01:17;;;;;;;;;1.00;1.00;;;;;;;;2;234075731;234075731;-80
2023/08/27 18:10:19;;;;;;;;;1.00;1.00;;;;;;;;2;279082583;279082583;-78
2023/08/27 18:18:17;;;;;;;;;0.50;0.50;;;;;;;;2;234072827;234072827;-78
2023/08/27 18:27:17;;;;;;;;;0.00;0.00;;;;;;;;2;279086636;279086636;-76
2023/08/27 18:35:14;;;;;;;;;0.00;0.00;;;;;;;;2;234072548;234072548;-78
2023/08/27 18:44:15;;;;;;;;;0.00;0.00;;;;;;;;2;279086151;279086151;-74
2023/08/27 18:52:12;;;;;;;;;0.00;0.00;;;;;;;;2;234072075;234072075;-74
2023/08/27 19:01:12;;;;;;;;;2.00;2.00;;;;;;;;2;279084625;279084625;-74
2023/08/27 19:09:10;;;;;;;;;0.00;0.00;;;;;;;;2;234074417;234074417;-74
2023/08/27 19:18:10;;;;;;;;;0.00;0.00;;;;;;;;2;279088154;279088154;-75
2023/08/27 19:26:08;;;;;;;;;1.50;1.50;;;;;;;;2;234074785;234074785;-75
2023/08/27 19:35:08;;;;;;;;;1.50;1.50;;;;;;;;2;279087523;279087523;-75
2023/08/27 19:43:06;;;;;;;;;1.00;1.00;;;;;;;;2;234073585;234073585;-74
2023/08/27 19:52:07;;;;;;;;;2.00;2.00;;;;;;;;2;279089132;279089132;-75
2023/08/27 20:00:04;;;;;;;;;5.00;5.00;;;;;;;;2;234073275;234073275;-74
2023/08/27 20:09:05;;;;;;;;;1.00;1.00;;;;;;;;2;279083086;279083086;-74
2023/08/27 20:17:02;;;;;;;;;0.50;0.50;;;;;;;;2;234072814;234072814;-74
2023/08/27 20:26:04;;;;;;;;;0.50;0.50;;;;;;;;2;279085143;279085143;-74
2023/08/27 20:34:01;;;;;;;;;0.50;0.50;;;;;;;;2;234072310;234072310;-75
2023/08/27 20:43:02;;;;;;;;;3.50;3.50;;;;;;;;2;279085222;279085222;-75
2023/08/27 20:50:37;;;;;;;;;1.50;1.50;;;;;;;;2;232546479;232546479;-75
2023/08/27 20:58:57;;;;;;;;;1.00;1.00;;;;;;;;160082;30;261065995;-75
2023/08/27 21:07:40;;;;;;;;;0.50;0.50;;;;;;;;2;243079079;243079079;-75
2023/08/27 21:15:55;;;;;;;;;0.00;0.00;;;;;;;;2;261080662;261080662;-74
2023/08/27 21:24:37;;;;;;;;;3.00;3.00;;;;;;;;2;243073594;243073594;-75
2023/08/27 21:32:53;;;;;;;;;0.50;0.50;;;;;;;;2;261080470;261080470;-76
2023/08/27 21:41:35;;;;;;;;;1.00;1.00;;;;;;;;2;243073700;243073700;-76
2023/08/27 21:44:32;;;;;;;;;0.50;0.50;;;;;;;;2;176061208;176061208;-76
2023/08/27 21:46:57;;;;;;;;;2.00;2.00;;;;;;;;4642263;30;28531;-75
2023/08/27 21:49:22;;;;;;;;;1.67;1.33;;;;;;;;4645226;30;28473;-75
2023/08/27 21:51:47;;;;;;;;;3.25;1.75;;;;;;;;4645262;30;28660;-75
2023/08/27 21:54:13;;;;;;;;;2.25;2.25;;;;;;;;4645166;30;28655;-76
2023/08/27 21:56:38;;;;;;;;;2.00;1.67;;;;;;;;4644063;30;28701;-76
2023/08/27 21:59:03;;;;;;;;;2.50;1.50;;;;;;;;4645458;30;28723;-76
2023/08/27 22:01:29;;;;;;;;;2.33;2.33;;;;;;;;4644555;30;28696;-76
2023/08/27 22:03:54;;;;;;;;;1.50;1.50;;;;;;;;4645593;30;28096;-76
2023/08/27 22:06:19;;;;;;;;;2.00;2.00;;;;;;;;4645567;30;28626;-77
2023/08/27 22:08:44;;;;;;;;;2.00;1.00;;;;;;;;4645270;30;28582;-76
2023/08/27 22:11:09;;;;;;;;;1.00;1.00;;;;;;;;4644508;30;28580;-76
2023/08/27 22:13:35;;;;;;;;;3.25;2.00;;;;;;;;4645418;30;28493;-76
2023/08/27 22:16:00;;;;;;;;;3.33;1.33;;;;;;;;4645375;30;28405;-76
2023/08/27 22:18:26;;;;;;;;;1.67;1.67;;;;;;;;4645327;30;28459;-75
2023/08/27 22:20:51;;;;;;;;;1.67;1.67;;;;;;;;4645227;30;28444;-73
2023/08/27 22:23:16;;;;;;;;;0.75;0.75;;;;;;;;4644491;30;28468;-77
2023/08/27 22:25:41;;;;;;;;;1.75;1.75;;;;;;;;4645291;30;28420;-76
2023/08/27 22:28:07;;;;;;;;;3.00;2.00;;;;;;;;4645248;30;28639;-76
2023/08/27 22:30:32;;;;;;;;;3.00;2.00;;;;;;;;4643664;30;28986;-76
2023/08/27 22:32:57;;;;;;;;;4.25;3.00;;;;;;;;4645116;30;28576;-76
2023/08/27 22:35:23;;;;;;;;;3.67;2.00;;;;;;;;4644863;30;28395;-75
2023/08/27 22:37:48;;;;;;;;;2.00;1.33;;;;;;;;4644998;30;29128;-76
2023/08/27 22:40:13;;;;;;;;;2.00;2.00;;;;;;;;4643880;30;28494;-73
2023/08/27 22:42:38;;;;;;;;;2.00;2.00;;;;;;;;4644748;30;28502;-76
2023/08/27 22:45:05;;;;;;;;;0.67;0.67;;;;;;;;4645447;30;28535;-76
2023/08/27 22:47:30;;;;;;;;;2.00;2.00;;;;;;;;4644867;30;28472;-76
2023/08/27 22:49:55;;;;;;;;;2.50;2.25;;;;;;;;4644842;30;28461;-76
2023/08/27 22:52:24;;;;;;;;;1.25;0.00;;;;;;;;4644784;30;28473;-76
2023/08/27 22:54:49;;;;;;;;;1.50;1.50;;;;;;;;4644992;30;28365;-77
2023/08/27 22:57:14;;;;;;;;;1.00;1.00;;;;;;;;4644868;30;30241;-76
2023/08/27 22:59:39;;;;;;;;;1.00;0.75;;;;;;;;4645368;30;28338;-77
2023/08/27 23:02:05;;;;;;;;;1.00;1.00;;;;;;;;4644808;30;28432;-76
2023/08/27 23:04:30;;;;;;;;;2.25;2.25;;;;;;;;4645012;30;28242;-77
2023/08/27 23:06:55;;;;;;;;;0.75;0.75;;;;;;;;4644663;30;29543;-76
2023/08/27 23:09:20;;;;;;;;;0.67;0.67;;;;;;;;4643406;30;28441;-76
2023/08/27 23:11:45;;;;;;;;;1.00;1.00;;;;;;;;4644926;30;28323;-76
2023/08/27 23:14:10;;;;;;;;;1.00;1.00;;;;;;;;4644798;30;28295;-76
2023/08/27 23:16:36;;;;;;;;;0.67;0.33;;;;;;;;4643360;30;30025;-76
2023/08/27 23:19:02;;;;;;;;;2.00;2.00;;;;;;;;4644515;30;28385;-75
2023/08/27 23:21:27;;;;;;;;;2.75;1.50;;;;;;;;4644623;30;28502;-76
2023/08/27 23:23:53;;;;;;;;;1.50;1.50;;;;;;;;4644609;30;28378;-75
2023/08/27 23:26:18;;;;;;;;;5.00;2.25;;;;;;;;4644781;30;29576;-75
2023/08/27 23:28:44;;;;;;;;;1.00;1.00;;;;;;;;4644396;30;28437;-76
2023/08/27 23:31:10;;;;;;;;;0.67;0.67;;;;;;;;4629611;30;28444;-76
2023/08/27 23:33:35;;;;;;;;;1.00;1.00;;;;;;;;4644452;30;28618;-77
2023/08/27 23:36:00;;;;;;;;;1.00;1.00;;;;;;;;4644863;30;30712;-76
2023/08/27 23:38:25;;;;;;;;;2.50;2.50;;;;;;;;4647688;30;28316;-77
2023/08/27 23:40:50;;;;;;;;;1.25;1.25;;;;;;;;4647478;30;28684;-77
2023/08/27 23:43:16;;;;;;;;;3.00;2.00;;;;;;;;4647663;30;28487;-77
2023/08/27 23:45:43;;;;;;;;;0.50;0.50;;;;;;;;4647799;30;28436;-77
2023/08/27 23:48:10;;;;;;;;;2.33;1.00;;;;;;;;4647362;30;28525;-76
2023/08/27 23:50:35;;;;;;;;;1.00;1.00;;;;;;;;4647857;30;28402;-77
2023/08/27 23:53:01;;;;;;;;;1.75;1.75;;;;;;;;4647640;30;28409;-76
2023/08/27 23:55:26;;;;;;;;;2.00;2.00;;;;;;;;4647450;30;29555;-76
2023/08/27 23:57:51;;;;;;;;;3.00;2.00;;;;;;;;4647491;30;28527;-77
